LOT6317 EPKT-HEGN
Flight info
| Callsign | LOT6317 |
|---|---|
| Flight time | 3h 29m |
| Altitude | 35000 |
| Route | BABKO DCT ABULI DCT TUVNU DCT NOPTI DCT NULGO DCT NIKTI UN127 IMR UN128 RDS UL995 VANZA DCT RASDA A16 CVO L315 SOKOT SOKOT1A |
| Aircraft | B738/M-SDE2E3FGHIJ1RWXY/LB1 |
Departure
| Time | 2026-04-28 17:12 |
|---|---|
| Airport | Katowice Wojciech Korfanty International Airport (EPKT) |
Arrival
| Time | 2026-04-28 20:42 |
|---|---|
| Airport | Hurghada International Airport (HEGN) |
| Time | Latitude | Longitude | Altitude | Speed | Heading |
|---|---|---|---|---|---|
| 2026-04-28 17:01 | 50.47180 | 19.07279 | 971 ft | 0 kts | 178° |
| 2026-04-28 17:06 | 50.47202 | 19.07280 | 971 ft | 4 kts | 195° |
| 2026-04-28 17:07 | 50.47225 | 19.07298 | 973 ft | 4 kts | 229° |
| 2026-04-28 17:07 | 50.47235 | 19.07329 | 979 ft | 1 kts | 270° |
| 2026-04-28 17:07 | 50.47235 | 19.07336 | 979 ft | 0 kts | 270° |
| 2026-04-28 17:08 | 50.47235 | 19.07290 | 977 ft | 9 kts | 270° |
| 2026-04-28 17:09 | 50.47236 | 19.07138 | 974 ft | 18 kts | 270° |
| 2026-04-28 17:09 | 50.47237 | 19.06932 | 970 ft | 19 kts | 270° |
| 2026-04-28 17:09 | 50.47238 | 19.06731 | 969 ft | 18 kts | 271° |
| 2026-04-28 17:09 | 50.47318 | 19.06624 | 973 ft | 17 kts | 2° |
| 2026-04-28 17:10 | 50.47424 | 19.06573 | 970 ft | 17 kts | 294° |
| 2026-04-28 17:10 | 50.47429 | 19.06393 | 966 ft | 16 kts | 270° |
| 2026-04-28 17:10 | 50.47430 | 19.06211 | 965 ft | 18 kts | 270° |
| 2026-04-28 17:10 | 50.47443 | 19.06015 | 966 ft | 18 kts | 303° |
| 2026-04-28 17:11 | 50.47559 | 19.05974 | 971 ft | 17 kts | 7° |
| 2026-04-28 17:11 | 50.47605 | 19.06125 | 969 ft | 17 kts | 88° |
| 2026-04-28 17:11 | 50.47604 | 19.06306 | 966 ft | 17 kts | 91° |
| 2026-04-28 17:11 | 50.47603 | 19.06785 | 969 ft | 77 kts | 90° |
| 2026-04-28 17:12 | 50.47601 | 19.07966 | 979 ft | 137 kts | 90° |
| 2026-04-28 17:12 | 50.47602 | 19.09711 | 1151 ft | 172 kts | 88° |
| 2026-04-28 17:12 | 50.47580 | 19.11594 | 1947 ft | 175 kts | 89° |
| 2026-04-28 17:12 | 50.47562 | 19.13537 | 2602 ft | 187 kts | 88° |
| 2026-04-28 17:13 | 50.47561 | 19.15726 | 2837 ft | 212 kts | 88° |
| 2026-04-28 17:13 | 50.47539 | 19.18138 | 3176 ft | 228 kts | 95° |
| 2026-04-28 17:13 | 50.46897 | 19.20443 | 3695 ft | 238 kts | 130° |
| 2026-04-28 17:13 | 50.45476 | 19.21939 | 4138 ft | 260 kts | 159° |
| 2026-04-28 17:14 | 50.43688 | 19.22652 | 4797 ft | 270 kts | 166° |
| 2026-04-28 17:14 | 50.41838 | 19.23211 | 5664 ft | 270 kts | 168° |
| 2026-04-28 17:14 | 50.39973 | 19.23742 | 6463 ft | 275 kts | 169° |
| 2026-04-28 17:14 | 50.38088 | 19.24274 | 7093 ft | 283 kts | 170° |
| 2026-04-28 17:15 | 50.36140 | 19.24831 | 7822 ft | 286 kts | 170° |
| 2026-04-28 17:15 | 50.34173 | 19.25401 | 8588 ft | 289 kts | 171° |
| 2026-04-28 17:15 | 50.32169 | 19.25986 | 9246 ft | 297 kts | 171° |
| 2026-04-28 17:15 | 50.30123 | 19.26588 | 9929 ft | 302 kts | 171° |
| 2026-04-28 17:16 | 50.28034 | 19.27205 | 10526 ft | 310 kts | 172° |
| 2026-04-28 17:16 | 50.25835 | 19.27853 | 10721 ft | 333 kts | 171° |
| 2026-04-28 17:16 | 50.23488 | 19.28547 | 10907 ft | 354 kts | 171° |
| 2026-04-28 17:16 | 50.21014 | 19.29281 | 11231 ft | 369 kts | 171° |
| 2026-04-28 17:17 | 50.18470 | 19.30038 | 11800 ft | 374 kts | 171° |
| 2026-04-28 17:17 | 50.15908 | 19.30803 | 12553 ft | 375 kts | 171° |
| 2026-04-28 17:17 | 50.13331 | 19.31572 | 13237 ft | 379 kts | 171° |
| 2026-04-28 17:17 | 50.10731 | 19.32346 | 13882 ft | 383 kts | 171° |
| 2026-04-28 17:18 | 50.08100 | 19.33127 | 14480 ft | 387 kts | 171° |
| 2026-04-28 17:18 | 50.05440 | 19.33916 | 15058 ft | 390 kts | 171° |
| 2026-04-28 17:18 | 50.02760 | 19.34709 | 15635 ft | 394 kts | 171° |
| 2026-04-28 17:18 | 50.00056 | 19.35509 | 16218 ft | 398 kts | 171° |
| 2026-04-28 17:19 | 49.97326 | 19.36315 | 16799 ft | 401 kts | 172° |
| 2026-04-28 17:19 | 49.94574 | 19.37126 | 17365 ft | 405 kts | 172° |
| 2026-04-28 17:19 | 49.91794 | 19.37945 | 17946 ft | 408 kts | 172° |
| 2026-04-28 17:19 | 49.88998 | 19.38768 | 18537 ft | 410 kts | 172° |
| 2026-04-28 17:20 | 49.86184 | 19.39596 | 19014 ft | 414 kts | 172° |
| 2026-04-28 17:20 | 49.84302 | 19.40148 | 19307 ft | 417 kts | 172° |
| 2026-04-28 17:20 | 49.80458 | 19.41275 | 19911 ft | 422 kts | 172° |
| 2026-04-28 17:20 | 49.77565 | 19.42122 | 20432 ft | 424 kts | 173° |
| 2026-04-28 17:21 | 49.74653 | 19.42974 | 20906 ft | 427 kts | 173° |
| 2026-04-28 17:21 | 49.71721 | 19.43832 | 21346 ft | 431 kts | 173° |
| 2026-04-28 17:21 | 49.68765 | 19.44695 | 21793 ft | 434 kts | 173° |
| 2026-04-28 17:22 | 49.62802 | 19.46510 | 22700 ft | 442 kts | 168° |
| 2026-04-28 17:22 | 49.59875 | 19.48106 | 23120 ft | 449 kts | 158° |
| 2026-04-28 17:22 | 49.58040 | 19.49586 | 23394 ft | 454 kts | 152° |
| 2026-04-28 17:23 | 49.51678 | 19.55549 | 24217 ft | 461 kts | 151° |
| 2026-04-28 17:23 | 49.49864 | 19.57265 | 24442 ft | 463 kts | 151° |
| 2026-04-28 17:23 | 49.47107 | 19.59857 | 24799 ft | 465 kts | 152° |
| 2026-04-28 17:23 | 49.43424 | 19.63283 | 25191 ft | 470 kts | 152° |
| 2026-04-28 17:24 | 49.40609 | 19.65881 | 25494 ft | 473 kts | 152° |
| 2026-04-28 17:24 | 49.37780 | 19.68479 | 25832 ft | 475 kts | 152° |
| 2026-04-28 17:24 | 49.34931 | 19.71087 | 26160 ft | 478 kts | 153° |
| 2026-04-28 17:24 | 49.32072 | 19.73701 | 26468 ft | 480 kts | 153° |
| 2026-04-28 17:25 | 49.30133 | 19.75471 | 26665 ft | 482 kts | 153° |
| 2026-04-28 17:25 | 49.24374 | 19.80719 | 27276 ft | 487 kts | 153° |
| 2026-04-28 17:25 | 49.21456 | 19.83374 | 27599 ft | 490 kts | 153° |
| 2026-04-28 17:26 | 49.18482 | 19.86077 | 27934 ft | 492 kts | 153° |
| 2026-04-28 17:26 | 49.15536 | 19.88751 | 28204 ft | 494 kts | 153° |
| 2026-04-28 17:26 | 49.12566 | 19.91443 | 28434 ft | 497 kts | 153° |
| 2026-04-28 17:26 | 49.09626 | 19.94103 | 28735 ft | 499 kts | 153° |
| 2026-04-28 17:27 | 49.06596 | 19.96843 | 29028 ft | 500 kts | 153° |
| 2026-04-28 17:27 | 49.03636 | 19.99514 | 29277 ft | 503 kts | 153° |
| 2026-04-28 17:27 | 49.00615 | 20.02236 | 29513 ft | 505 kts | 153° |
| 2026-04-28 17:27 | 48.97589 | 20.04959 | 29776 ft | 507 kts | 153° |
| 2026-04-28 17:28 | 48.94556 | 20.07686 | 30112 ft | 506 kts | 153° |
| 2026-04-28 17:28 | 48.88506 | 20.13115 | 30760 ft | 504 kts | 154° |
| 2026-04-28 17:28 | 48.85485 | 20.15818 | 31017 ft | 503 kts | 154° |
| 2026-04-28 17:29 | 48.82473 | 20.18511 | 31381 ft | 500 kts | 154° |
| 2026-04-28 17:29 | 48.79477 | 20.21186 | 31693 ft | 499 kts | 154° |
| 2026-04-28 17:29 | 48.76479 | 20.23856 | 31868 ft | 501 kts | 154° |
| 2026-04-28 17:30 | 48.70449 | 20.29214 | 32289 ft | 503 kts | 154° |
| 2026-04-28 17:30 | 48.64413 | 20.34568 | 32788 ft | 503 kts | 154° |
| 2026-04-28 17:30 | 48.61394 | 20.37240 | 33022 ft | 503 kts | 154° |
| 2026-04-28 17:31 | 48.58374 | 20.39908 | 33254 ft | 502 kts | 154° |
| 2026-04-28 17:31 | 48.52331 | 20.45239 | 33683 ft | 504 kts | 155° |
| 2026-04-28 17:32 | 48.46235 | 20.50432 | 34156 ft | 501 kts | 158° |
| 2026-04-28 17:32 | 48.43119 | 20.52774 | 34377 ft | 499 kts | 160° |
| 2026-04-28 17:32 | 48.39995 | 20.55030 | 34605 ft | 498 kts | 160° |
| 2026-04-28 17:32 | 48.36873 | 20.57253 | 34808 ft | 497 kts | 160° |
| 2026-04-28 17:33 | 48.33743 | 20.59482 | 34971 ft | 497 kts | 160° |
| 2026-04-28 17:33 | 48.30619 | 20.61720 | 35087 ft | 497 kts | 160° |
| 2026-04-28 17:33 | 48.25438 | 20.65462 | 35138 ft | 498 kts | 160° |
| 2026-04-28 17:34 | 48.18154 | 20.70748 | 35148 ft | 497 kts | 160° |
| 2026-04-28 17:34 | 48.11928 | 20.75259 | 35145 ft | 497 kts | 160° |
| 2026-04-28 17:35 | 48.05702 | 20.79757 | 35118 ft | 496 kts | 160° |
| 2026-04-28 17:35 | 47.99487 | 20.84231 | 35161 ft | 496 kts | 160° |
| 2026-04-28 17:36 | 47.93302 | 20.88670 | 35151 ft | 497 kts | 160° |
| 2026-04-28 17:36 | 47.87065 | 20.93134 | 35153 ft | 498 kts | 160° |
| 2026-04-28 17:37 | 47.80812 | 20.97599 | 35149 ft | 499 kts | 160° |
| 2026-04-28 17:37 | 47.74545 | 21.02062 | 35141 ft | 500 kts | 160° |
| 2026-04-28 17:38 | 47.68264 | 21.06523 | 35145 ft | 500 kts | 160° |
| 2026-04-28 17:38 | 47.61976 | 21.10977 | 35142 ft | 501 kts | 160° |
| 2026-04-28 17:39 | 47.55684 | 21.15423 | 35142 ft | 501 kts | 160° |
| 2026-04-28 17:40 | 47.46245 | 21.22070 | 35135 ft | 501 kts | 161° |
| 2026-04-28 17:40 | 47.39949 | 21.26488 | 35145 ft | 501 kts | 161° |
| 2026-04-28 17:41 | 47.33649 | 21.30897 | 35139 ft | 501 kts | 161° |
| 2026-04-28 17:41 | 47.27340 | 21.35301 | 35105 ft | 502 kts | 161° |
| 2026-04-28 17:42 | 47.21028 | 21.39696 | 35136 ft | 502 kts | 161° |
| 2026-04-28 17:42 | 47.14706 | 21.44085 | 35142 ft | 503 kts | 161° |
| 2026-04-28 17:43 | 47.08369 | 21.48472 | 35149 ft | 504 kts | 161° |
| 2026-04-28 17:43 | 47.02018 | 21.52859 | 35109 ft | 505 kts | 161° |
| 2026-04-28 17:44 | 46.95658 | 21.57242 | 35129 ft | 505 kts | 161° |
| 2026-04-28 17:44 | 46.89287 | 21.61620 | 35130 ft | 506 kts | 161° |
| 2026-04-28 17:45 | 46.82908 | 21.65993 | 35134 ft | 507 kts | 161° |
| 2026-04-28 17:45 | 46.76496 | 21.70314 | 35135 ft | 507 kts | 162° |
| 2026-04-28 17:46 | 46.70053 | 21.74521 | 35123 ft | 508 kts | 162° |
| 2026-04-28 17:46 | 46.63601 | 21.78723 | 35123 ft | 508 kts | 162° |
| 2026-04-28 17:47 | 46.57156 | 21.82931 | 35124 ft | 508 kts | 162° |
| 2026-04-28 17:47 | 46.50714 | 21.87134 | 35102 ft | 507 kts | 162° |
| 2026-04-28 17:48 | 46.44280 | 21.91319 | 35114 ft | 506 kts | 162° |
| 2026-04-28 17:48 | 46.37851 | 21.95490 | 35121 ft | 506 kts | 162° |
| 2026-04-28 17:49 | 46.31424 | 21.99656 | 35110 ft | 507 kts | 161° |
| 2026-04-28 17:49 | 46.25139 | 22.04377 | 35093 ft | 510 kts | 156° |
| 2026-04-28 17:50 | 46.18956 | 22.09396 | 35110 ft | 511 kts | 156° |
| 2026-04-28 17:50 | 46.12758 | 22.14393 | 35111 ft | 510 kts | 156° |
| 2026-04-28 17:51 | 46.06536 | 22.19318 | 35104 ft | 510 kts | 157° |
| 2026-04-28 17:51 | 46.00305 | 22.24203 | 35077 ft | 510 kts | 157° |
| 2026-04-28 17:52 | 45.94082 | 22.29065 | 35089 ft | 509 kts | 157° |
| 2026-04-28 17:52 | 45.84755 | 22.36337 | 35098 ft | 508 kts | 157° |
| 2026-04-28 17:53 | 45.78542 | 22.41167 | 35092 ft | 508 kts | 157° |
| 2026-04-28 17:53 | 45.72334 | 22.45982 | 35096 ft | 507 kts | 157° |
| 2026-04-28 17:54 | 45.66127 | 22.50785 | 35083 ft | 506 kts | 157° |
| 2026-04-28 17:54 | 45.59923 | 22.55479 | 35080 ft | 501 kts | 162° |
| 2026-04-28 17:55 | 45.53390 | 22.58467 | 35093 ft | 490 kts | 172° |
| 2026-04-28 17:55 | 45.46817 | 22.61045 | 35079 ft | 489 kts | 172° |
| 2026-04-28 17:56 | 45.40253 | 22.63668 | 35074 ft | 491 kts | 171° |
| 2026-04-28 17:56 | 45.33684 | 22.66349 | 35075 ft | 492 kts | 171° |
| 2026-04-28 17:57 | 45.27112 | 22.69051 | 35047 ft | 492 kts | 170° |
| 2026-04-28 17:57 | 45.20540 | 22.71747 | 35063 ft | 492 kts | 170° |
| 2026-04-28 17:58 | 45.13954 | 22.74439 | 35060 ft | 493 kts | 170° |
| 2026-04-28 17:58 | 45.07359 | 22.77126 | 35066 ft | 494 kts | 170° |
| 2026-04-28 17:59 | 45.00748 | 22.79813 | 35039 ft | 494 kts | 170° |
| 2026-04-28 17:59 | 44.94135 | 22.82495 | 35036 ft | 494 kts | 170° |
| 2026-04-28 18:00 | 44.87577 | 22.85150 | 35047 ft | 493 kts | 170° |
| 2026-04-28 18:00 | 44.80936 | 22.87830 | 35037 ft | 493 kts | 170° |
| 2026-04-28 18:01 | 44.74348 | 22.90482 | 35048 ft | 492 kts | 170° |
| 2026-04-28 18:01 | 44.67805 | 22.93109 | 35052 ft | 492 kts | 170° |
| 2026-04-28 18:02 | 44.61212 | 22.95751 | 35050 ft | 493 kts | 170° |
| 2026-04-28 18:02 | 44.54615 | 22.98388 | 35042 ft | 493 kts | 169° |
| 2026-04-28 18:03 | 44.48023 | 23.01018 | 35043 ft | 493 kts | 169° |
| 2026-04-28 18:03 | 44.41430 | 23.03641 | 35039 ft | 492 kts | 169° |
| 2026-04-28 18:04 | 44.34837 | 23.06259 | 35047 ft | 492 kts | 169° |
| 2026-04-28 18:04 | 44.28248 | 23.08868 | 35045 ft | 492 kts | 169° |
| 2026-04-28 18:05 | 44.22720 | 23.11052 | 35043 ft | 493 kts | 169° |
| 2026-04-28 18:05 | 44.15063 | 23.14071 | 35021 ft | 492 kts | 169° |
| 2026-04-28 18:06 | 44.08484 | 23.16659 | 35040 ft | 491 kts | 169° |
| 2026-04-28 18:06 | 44.01908 | 23.19239 | 35050 ft | 491 kts | 169° |
| 2026-04-28 18:07 | 43.95321 | 23.21817 | 35052 ft | 491 kts | 169° |
| 2026-04-28 18:07 | 43.89808 | 23.23971 | 35041 ft | 491 kts | 169° |
| 2026-04-28 18:08 | 43.83222 | 23.26538 | 35054 ft | 492 kts | 169° |
| 2026-04-28 18:08 | 43.76630 | 23.29102 | 35049 ft | 493 kts | 169° |
| 2026-04-28 18:09 | 43.70019 | 23.31667 | 35042 ft | 493 kts | 169° |
| 2026-04-28 18:09 | 43.63454 | 23.34208 | 35051 ft | 494 kts | 169° |
| 2026-04-28 18:10 | 43.56832 | 23.36767 | 35054 ft | 494 kts | 169° |
| 2026-04-28 18:10 | 43.50212 | 23.39318 | 35036 ft | 495 kts | 168° |
| 2026-04-28 18:11 | 43.43585 | 23.41866 | 35048 ft | 494 kts | 168° |
| 2026-04-28 18:11 | 43.36955 | 23.44410 | 35052 ft | 494 kts | 168° |
| 2026-04-28 18:12 | 43.30341 | 23.46942 | 35056 ft | 493 kts | 168° |
| 2026-04-28 18:12 | 43.23734 | 23.49465 | 35054 ft | 492 kts | 168° |
| 2026-04-28 18:13 | 43.17136 | 23.51979 | 35065 ft | 492 kts | 168° |
| 2026-04-28 18:13 | 43.10551 | 23.54483 | 35056 ft | 491 kts | 168° |
| 2026-04-28 18:14 | 43.03977 | 23.56977 | 35057 ft | 489 kts | 168° |
| 2026-04-28 18:14 | 42.97423 | 23.59458 | 35044 ft | 489 kts | 168° |
| 2026-04-28 18:15 | 42.90873 | 23.61931 | 35042 ft | 488 kts | 168° |
| 2026-04-28 18:15 | 42.84334 | 23.64395 | 35037 ft | 487 kts | 168° |
| 2026-04-28 18:16 | 42.77810 | 23.66848 | 35040 ft | 486 kts | 168° |
| 2026-04-28 18:16 | 42.71289 | 23.69295 | 35046 ft | 486 kts | 168° |
| 2026-04-28 18:17 | 42.64776 | 23.71733 | 35024 ft | 485 kts | 168° |
| 2026-04-28 18:17 | 42.58267 | 23.74165 | 35038 ft | 485 kts | 168° |
| 2026-04-28 18:18 | 42.51761 | 23.76590 | 35032 ft | 485 kts | 168° |
| 2026-04-28 18:18 | 42.46360 | 23.78599 | 35041 ft | 484 kts | 168° |
| 2026-04-28 18:19 | 42.38772 | 23.81415 | 35036 ft | 483 kts | 168° |
| 2026-04-28 18:19 | 42.32288 | 23.83817 | 35036 ft | 482 kts | 168° |
| 2026-04-28 18:20 | 42.25819 | 23.86208 | 35040 ft | 482 kts | 168° |
| 2026-04-28 18:20 | 42.19359 | 23.88590 | 35041 ft | 481 kts | 168° |
| 2026-04-28 18:21 | 42.12939 | 23.90952 | 35030 ft | 481 kts | 168° |
| 2026-04-28 18:21 | 42.06487 | 23.93322 | 35053 ft | 480 kts | 168° |
| 2026-04-28 18:22 | 42.00038 | 23.95685 | 35046 ft | 480 kts | 168° |
| 2026-04-28 18:22 | 41.93588 | 23.98044 | 35053 ft | 481 kts | 168° |
| 2026-04-28 18:23 | 41.87122 | 24.00403 | 35053 ft | 482 kts | 168° |
| 2026-04-28 18:23 | 41.80652 | 24.02759 | 35042 ft | 482 kts | 168° |
| 2026-04-28 18:24 | 41.75274 | 24.04714 | 35053 ft | 481 kts | 168° |
| 2026-04-28 18:24 | 41.67724 | 24.07454 | 35057 ft | 481 kts | 167° |
| 2026-04-28 18:25 | 41.61254 | 24.09796 | 35047 ft | 481 kts | 167° |
| 2026-04-28 18:26 | 41.51851 | 24.14437 | 35054 ft | 486 kts | 148° |
| 2026-04-28 18:26 | 41.46261 | 24.19506 | 35053 ft | 486 kts | 146° |
| 2026-04-28 18:27 | 41.40686 | 24.24595 | 35057 ft | 486 kts | 147° |
| 2026-04-28 18:27 | 41.35076 | 24.29609 | 35052 ft | 485 kts | 147° |
| 2026-04-28 18:28 | 41.29455 | 24.34590 | 35066 ft | 485 kts | 147° |
| 2026-04-28 18:28 | 41.23835 | 24.39566 | 35069 ft | 486 kts | 147° |
| 2026-04-28 18:29 | 41.18157 | 24.44423 | 35072 ft | 485 kts | 153° |
| 2026-04-28 18:29 | 41.12107 | 24.48334 | 35083 ft | 484 kts | 156° |
| 2026-04-28 18:30 | 41.05991 | 24.52112 | 35096 ft | 485 kts | 156° |
| 2026-04-28 18:30 | 40.99908 | 24.55978 | 35101 ft | 485 kts | 155° |
| 2026-04-28 18:31 | 40.93829 | 24.59882 | 35104 ft | 485 kts | 155° |
| 2026-04-28 18:31 | 40.87743 | 24.63749 | 35100 ft | 485 kts | 156° |
| 2026-04-28 18:32 | 40.81643 | 24.67565 | 35101 ft | 485 kts | 156° |
| 2026-04-28 18:32 | 40.75547 | 24.71391 | 35086 ft | 485 kts | 155° |
| 2026-04-28 18:33 | 40.69539 | 24.75314 | 35087 ft | 484 kts | 155° |
| 2026-04-28 18:33 | 40.63472 | 24.79170 | 35085 ft | 484 kts | 156° |
| 2026-04-28 18:34 | 40.57395 | 24.82984 | 35086 ft | 484 kts | 155° |
| 2026-04-28 18:34 | 40.51327 | 24.86799 | 35088 ft | 483 kts | 155° |
| 2026-04-28 18:35 | 40.45267 | 24.90599 | 35088 ft | 483 kts | 155° |
| 2026-04-28 18:35 | 40.39206 | 24.94393 | 35087 ft | 482 kts | 155° |
| 2026-04-28 18:36 | 40.33150 | 24.98178 | 35086 ft | 482 kts | 155° |
| 2026-04-28 18:36 | 40.27102 | 25.01950 | 35091 ft | 481 kts | 155° |
| 2026-04-28 18:37 | 40.21056 | 25.05713 | 35042 ft | 481 kts | 155° |
| 2026-04-28 18:37 | 40.15021 | 25.09463 | 35085 ft | 480 kts | 156° |
| 2026-04-28 18:38 | 40.08988 | 25.13203 | 35087 ft | 480 kts | 156° |
| 2026-04-28 18:38 | 40.02957 | 25.16936 | 35104 ft | 480 kts | 156° |
| 2026-04-28 18:39 | 39.96917 | 25.20668 | 35107 ft | 481 kts | 156° |
| 2026-04-28 18:39 | 39.91015 | 25.24760 | 35096 ft | 483 kts | 145° |
| 2026-04-28 18:40 | 39.85898 | 25.30435 | 35109 ft | 483 kts | 138° |
| 2026-04-28 18:40 | 39.80882 | 25.36274 | 35091 ft | 484 kts | 138° |
| 2026-04-28 18:41 | 39.75862 | 25.42029 | 35082 ft | 485 kts | 139° |
| 2026-04-28 18:41 | 39.70779 | 25.47787 | 35077 ft | 485 kts | 139° |
| 2026-04-28 18:42 | 39.65689 | 25.53529 | 35077 ft | 485 kts | 139° |
| 2026-04-28 18:42 | 39.60599 | 25.59262 | 35079 ft | 484 kts | 139° |
| 2026-04-28 18:43 | 39.55510 | 25.64985 | 35074 ft | 484 kts | 139° |
| 2026-04-28 18:43 | 39.50419 | 25.70699 | 35068 ft | 484 kts | 139° |
| 2026-04-28 18:44 | 39.45335 | 25.76394 | 35067 ft | 484 kts | 139° |
| 2026-04-28 18:44 | 39.37699 | 25.84928 | 35060 ft | 483 kts | 139° |
| 2026-04-28 18:45 | 39.32615 | 25.90598 | 35054 ft | 483 kts | 139° |
| 2026-04-28 18:45 | 39.27524 | 25.96242 | 35061 ft | 482 kts | 139° |
| 2026-04-28 18:46 | 39.22358 | 26.01785 | 35049 ft | 483 kts | 140° |
| 2026-04-28 18:46 | 39.17173 | 26.07299 | 35050 ft | 484 kts | 140° |
| 2026-04-28 18:47 | 39.11985 | 26.12829 | 35032 ft | 484 kts | 140° |
| 2026-04-28 18:47 | 39.06802 | 26.18358 | 35032 ft | 484 kts | 140° |
| 2026-04-28 18:48 | 39.01619 | 26.23877 | 35033 ft | 484 kts | 140° |
| 2026-04-28 18:48 | 38.96431 | 26.29390 | 35041 ft | 484 kts | 140° |
| 2026-04-28 18:49 | 38.92996 | 26.33035 | 35037 ft | 484 kts | 140° |
| 2026-04-28 18:49 | 38.86051 | 26.40390 | 35027 ft | 483 kts | 140° |
| 2026-04-28 18:50 | 38.80887 | 26.45910 | 35028 ft | 483 kts | 138° |
| 2026-04-28 18:50 | 38.75842 | 26.51578 | 35025 ft | 482 kts | 137° |
| 2026-04-28 18:51 | 38.70814 | 26.57265 | 35030 ft | 482 kts | 137° |
| 2026-04-28 18:51 | 38.65771 | 26.62921 | 35020 ft | 482 kts | 138° |
| 2026-04-28 18:52 | 38.61566 | 26.67610 | 35015 ft | 482 kts | 138° |
| 2026-04-28 18:52 | 38.56510 | 26.73235 | 35008 ft | 482 kts | 138° |
| 2026-04-28 18:53 | 38.51454 | 26.78851 | 35006 ft | 481 kts | 138° |
| 2026-04-28 18:53 | 38.46400 | 26.84455 | 35009 ft | 481 kts | 138° |
| 2026-04-28 18:54 | 38.41340 | 26.90056 | 35017 ft | 482 kts | 138° |
| 2026-04-28 18:54 | 38.36276 | 26.95653 | 35021 ft | 482 kts | 138° |
| 2026-04-28 18:55 | 38.31042 | 27.00965 | 35010 ft | 483 kts | 148° |
| 2026-04-28 18:55 | 38.24979 | 27.04605 | 35025 ft | 481 kts | 158° |
| 2026-04-28 18:56 | 38.18802 | 27.07913 | 35023 ft | 482 kts | 158° |
| 2026-04-28 18:56 | 38.12676 | 27.11248 | 35007 ft | 482 kts | 157° |
| 2026-04-28 18:57 | 38.06521 | 27.14644 | 34992 ft | 483 kts | 157° |
| 2026-04-28 18:57 | 38.00314 | 27.18076 | 34985 ft | 483 kts | 157° |
| 2026-04-28 18:58 | 37.94188 | 27.21454 | 34962 ft | 483 kts | 157° |
| 2026-04-28 18:58 | 37.88020 | 27.24846 | 34951 ft | 484 kts | 157° |
| 2026-04-28 18:59 | 37.81845 | 27.28236 | 34954 ft | 484 kts | 157° |
| 2026-04-28 18:59 | 37.75668 | 27.31620 | 34947 ft | 484 kts | 157° |
| 2026-04-28 19:00 | 37.69490 | 27.35000 | 34950 ft | 484 kts | 157° |
| 2026-04-28 19:00 | 37.63320 | 27.38369 | 34939 ft | 483 kts | 157° |
| 2026-04-28 19:01 | 37.57201 | 27.41875 | 34942 ft | 483 kts | 155° |
| 2026-04-28 19:01 | 37.51117 | 27.45453 | 34983 ft | 482 kts | 156° |
| 2026-04-28 19:02 | 37.44968 | 27.48829 | 34996 ft | 482 kts | 159° |
| 2026-04-28 19:02 | 37.38746 | 27.51992 | 34983 ft | 482 kts | 159° |
| 2026-04-28 19:03 | 37.32536 | 27.55195 | 34978 ft | 483 kts | 158° |
| 2026-04-28 19:03 | 37.26342 | 27.58435 | 34990 ft | 482 kts | 158° |
| 2026-04-28 19:04 | 37.20188 | 27.61772 | 34994 ft | 482 kts | 157° |
| 2026-04-28 19:04 | 37.14044 | 27.65127 | 34993 ft | 481 kts | 157° |
| 2026-04-28 19:05 | 37.07900 | 27.68461 | 34993 ft | 481 kts | 157° |
| 2026-04-28 19:05 | 37.01756 | 27.71779 | 34988 ft | 481 kts | 158° |
| 2026-04-28 19:06 | 36.96644 | 27.74534 | 34985 ft | 481 kts | 158° |
| 2026-04-28 19:06 | 36.89449 | 27.78404 | 34985 ft | 481 kts | 158° |
| 2026-04-28 19:07 | 36.83295 | 27.81710 | 34973 ft | 482 kts | 158° |
| 2026-04-28 19:07 | 36.77134 | 27.85015 | 34969 ft | 482 kts | 158° |
| 2026-04-28 19:08 | 36.70965 | 27.88317 | 34959 ft | 483 kts | 158° |
| 2026-04-28 19:08 | 36.64774 | 27.91565 | 34958 ft | 483 kts | 158° |
| 2026-04-28 19:09 | 36.58571 | 27.94782 | 34959 ft | 483 kts | 158° |
| 2026-04-28 19:09 | 36.52410 | 27.97985 | 34940 ft | 483 kts | 159° |
| 2026-04-28 19:10 | 36.46192 | 28.01297 | 34938 ft | 483 kts | 156° |
| 2026-04-28 19:10 | 36.40127 | 28.04759 | 34940 ft | 483 kts | 156° |
| 2026-04-28 19:11 | 36.34182 | 28.08639 | 34942 ft | 485 kts | 145° |
| 2026-04-28 19:11 | 36.29242 | 28.14315 | 34959 ft | 484 kts | 132° |
| 2026-04-28 19:12 | 36.24735 | 28.20522 | 34954 ft | 484 kts | 132° |
| 2026-04-28 19:12 | 36.20198 | 28.26679 | 34952 ft | 484 kts | 133° |
| 2026-04-28 19:13 | 36.15625 | 28.32784 | 34951 ft | 484 kts | 133° |
| 2026-04-28 19:13 | 36.11043 | 28.38881 | 34973 ft | 483 kts | 133° |
| 2026-04-28 19:14 | 36.06463 | 28.44966 | 34963 ft | 483 kts | 133° |
| 2026-04-28 19:14 | 36.01875 | 28.51040 | 34960 ft | 483 kts | 133° |
| 2026-04-28 19:15 | 35.97289 | 28.57103 | 34950 ft | 483 kts | 133° |
| 2026-04-28 19:15 | 35.93480 | 28.62133 | 34960 ft | 482 kts | 133° |
| 2026-04-28 19:16 | 35.88117 | 28.69186 | 34969 ft | 482 kts | 135° |
| 2026-04-28 19:16 | 35.83360 | 28.74938 | 34968 ft | 482 kts | 137° |
| 2026-04-28 19:17 | 35.78478 | 28.80601 | 34969 ft | 482 kts | 137° |
| 2026-04-28 19:17 | 35.73601 | 28.86280 | 34967 ft | 482 kts | 137° |
| 2026-04-28 19:18 | 35.68743 | 28.91976 | 34965 ft | 482 kts | 137° |
| 2026-04-28 19:18 | 35.63891 | 28.97675 | 34958 ft | 482 kts | 137° |
| 2026-04-28 19:19 | 35.59037 | 29.03367 | 34965 ft | 482 kts | 137° |
| 2026-04-28 19:19 | 35.54180 | 29.09049 | 34967 ft | 482 kts | 137° |
| 2026-04-28 19:20 | 35.49318 | 29.14726 | 34968 ft | 482 kts | 137° |
| 2026-04-28 19:20 | 35.44453 | 29.20396 | 34962 ft | 482 kts | 137° |
| 2026-04-28 19:21 | 35.39584 | 29.26062 | 34976 ft | 482 kts | 137° |
| 2026-04-28 19:21 | 35.34714 | 29.31718 | 34965 ft | 482 kts | 137° |
| 2026-04-28 19:22 | 35.30668 | 29.36411 | 34956 ft | 482 kts | 138° |
| 2026-04-28 19:22 | 35.24981 | 29.42994 | 34973 ft | 481 kts | 138° |
| 2026-04-28 19:23 | 35.20116 | 29.48616 | 34979 ft | 481 kts | 138° |
| 2026-04-28 19:23 | 35.15246 | 29.54234 | 34982 ft | 481 kts | 138° |
| 2026-04-28 19:24 | 35.10379 | 29.59839 | 34976 ft | 481 kts | 138° |
| 2026-04-28 19:24 | 35.05509 | 29.65439 | 34970 ft | 481 kts | 138° |
| 2026-04-28 19:25 | 35.00642 | 29.71026 | 34967 ft | 480 kts | 138° |
| 2026-04-28 19:25 | 34.95815 | 29.76576 | 34968 ft | 480 kts | 138° |
| 2026-04-28 19:26 | 34.91003 | 29.82220 | 34990 ft | 480 kts | 137° |
| 2026-04-28 19:26 | 34.86198 | 29.87863 | 34996 ft | 480 kts | 137° |
| 2026-04-28 19:27 | 34.81382 | 29.93492 | 34982 ft | 480 kts | 137° |
| 2026-04-28 19:27 | 34.76498 | 29.99035 | 34978 ft | 479 kts | 144° |
| 2026-04-28 19:28 | 34.70811 | 30.03101 | 34991 ft | 473 kts | 157° |
| 2026-04-28 19:28 | 34.64841 | 30.06490 | 34989 ft | 474 kts | 158° |
| 2026-04-28 19:29 | 34.59880 | 30.09318 | 34992 ft | 474 kts | 157° |
| 2026-04-28 19:29 | 34.52915 | 30.13345 | 34992 ft | 475 kts | 157° |
| 2026-04-28 19:30 | 34.46957 | 30.16811 | 34989 ft | 475 kts | 157° |
| 2026-04-28 19:30 | 34.40996 | 30.20276 | 34990 ft | 475 kts | 157° |
| 2026-04-28 19:31 | 34.35028 | 30.23738 | 34999 ft | 476 kts | 157° |
| 2026-04-28 19:31 | 34.29061 | 30.27192 | 34997 ft | 476 kts | 157° |
| 2026-04-28 19:32 | 34.23084 | 30.30646 | 34999 ft | 476 kts | 157° |
| 2026-04-28 19:32 | 34.17152 | 30.34069 | 34992 ft | 476 kts | 157° |
| 2026-04-28 19:33 | 34.11180 | 30.37509 | 34994 ft | 476 kts | 157° |
| 2026-04-28 19:33 | 34.05205 | 30.40946 | 35004 ft | 476 kts | 157° |
| 2026-04-28 19:34 | 33.99229 | 30.44378 | 34988 ft | 476 kts | 157° |
| 2026-04-28 19:34 | 33.93250 | 30.47807 | 35001 ft | 476 kts | 157° |
| 2026-04-28 19:35 | 33.87274 | 30.51228 | 34994 ft | 475 kts | 157° |
| 2026-04-28 19:35 | 33.81302 | 30.54641 | 35004 ft | 475 kts | 157° |
| 2026-04-28 19:36 | 33.75325 | 30.58052 | 35003 ft | 476 kts | 157° |
| 2026-04-28 19:36 | 33.69344 | 30.61461 | 35006 ft | 476 kts | 157° |
| 2026-04-28 19:37 | 33.65339 | 30.63740 | 35005 ft | 476 kts | 157° |
| 2026-04-28 19:37 | 33.57368 | 30.68269 | 35007 ft | 477 kts | 157° |
| 2026-04-28 19:38 | 33.51371 | 30.71671 | 35012 ft | 477 kts | 157° |
| 2026-04-28 19:38 | 33.45365 | 30.75073 | 35011 ft | 478 kts | 157° |
| 2026-04-28 19:39 | 33.39349 | 30.78474 | 35012 ft | 478 kts | 157° |
| 2026-04-28 19:39 | 33.33328 | 30.81874 | 35005 ft | 479 kts | 158° |
| 2026-04-28 19:40 | 33.28322 | 30.84697 | 35013 ft | 479 kts | 158° |
| 2026-04-28 19:40 | 33.22293 | 30.88092 | 35014 ft | 479 kts | 158° |
| 2026-04-28 19:41 | 33.16259 | 30.91486 | 35016 ft | 480 kts | 158° |
| 2026-04-28 19:41 | 33.10142 | 30.94615 | 35006 ft | 476 kts | 167° |
| 2026-04-28 19:42 | 33.03686 | 30.95858 | 35031 ft | 469 kts | 179° |
| 2026-04-28 19:42 | 32.97179 | 30.96497 | 35023 ft | 469 kts | 179° |
| 2026-04-28 19:43 | 32.90675 | 30.97165 | 35019 ft | 469 kts | 179° |
| 2026-04-28 19:43 | 32.84169 | 30.97877 | 35006 ft | 470 kts | 179° |
| 2026-04-28 19:44 | 32.77666 | 30.98603 | 35022 ft | 470 kts | 179° |
| 2026-04-28 19:44 | 32.71157 | 30.99329 | 35022 ft | 470 kts | 179° |
| 2026-04-28 19:45 | 32.64649 | 31.00052 | 35022 ft | 470 kts | 179° |
| 2026-04-28 19:45 | 32.58133 | 31.00774 | 35013 ft | 470 kts | 179° |
| 2026-04-28 19:46 | 32.51617 | 31.01495 | 35021 ft | 470 kts | 179° |
| 2026-04-28 19:46 | 32.45096 | 31.02216 | 35023 ft | 471 kts | 179° |
| 2026-04-28 19:47 | 32.38606 | 31.02932 | 35025 ft | 472 kts | 179° |
| 2026-04-28 19:47 | 32.32070 | 31.03652 | 35020 ft | 472 kts | 180° |
| 2026-04-28 19:48 | 32.25529 | 31.04372 | 35023 ft | 472 kts | 180° |
| 2026-04-28 19:48 | 32.18981 | 31.05091 | 35021 ft | 473 kts | 180° |
| 2026-04-28 19:49 | 32.12424 | 31.05811 | 35008 ft | 473 kts | 180° |
| 2026-04-28 19:49 | 32.05864 | 31.06530 | 35024 ft | 474 kts | 180° |
| 2026-04-28 19:50 | 31.96016 | 31.07607 | 35028 ft | 474 kts | 180° |
| 2026-04-28 19:51 | 31.89443 | 31.08324 | 35022 ft | 475 kts | 180° |
| 2026-04-28 19:51 | 31.82863 | 31.09043 | 35020 ft | 475 kts | 180° |
| 2026-04-28 19:52 | 31.76286 | 31.09759 | 35022 ft | 475 kts | 180° |
| 2026-04-28 19:52 | 31.69704 | 31.10476 | 35021 ft | 475 kts | 180° |
| 2026-04-28 19:53 | 31.63128 | 31.11190 | 34998 ft | 474 kts | 181° |
| 2026-04-28 19:53 | 31.56559 | 31.11903 | 35014 ft | 474 kts | 181° |
| 2026-04-28 19:54 | 31.49993 | 31.12732 | 35023 ft | 476 kts | 178° |
| 2026-04-28 19:54 | 31.43440 | 31.13972 | 35023 ft | 478 kts | 176° |
| 2026-04-28 19:55 | 31.36888 | 31.15245 | 35020 ft | 477 kts | 177° |
| 2026-04-28 19:55 | 31.30330 | 31.16460 | 35025 ft | 477 kts | 178° |
| 2026-04-28 19:56 | 31.23766 | 31.17660 | 35021 ft | 477 kts | 178° |
| 2026-04-28 19:56 | 31.17206 | 31.18881 | 35023 ft | 478 kts | 177° |
| 2026-04-28 19:57 | 31.10638 | 31.20113 | 35012 ft | 478 kts | 178° |
| 2026-04-28 19:57 | 31.04069 | 31.21342 | 35019 ft | 478 kts | 178° |
| 2026-04-28 19:58 | 30.97487 | 31.22569 | 35024 ft | 479 kts | 178° |
| 2026-04-28 19:58 | 30.90898 | 31.23795 | 35021 ft | 480 kts | 178° |
| 2026-04-28 19:59 | 30.84299 | 31.25022 | 35012 ft | 480 kts | 178° |
| 2026-04-28 19:59 | 30.77693 | 31.26249 | 35018 ft | 481 kts | 178° |
| 2026-04-28 20:00 | 30.71130 | 31.27466 | 35022 ft | 481 kts | 178° |
| 2026-04-28 20:00 | 30.64516 | 31.28690 | 34996 ft | 481 kts | 178° |
| 2026-04-28 20:01 | 30.57914 | 31.29911 | 35023 ft | 481 kts | 178° |
| 2026-04-28 20:01 | 30.51306 | 31.31132 | 35016 ft | 480 kts | 178° |
| 2026-04-28 20:02 | 30.44706 | 31.32347 | 35020 ft | 480 kts | 178° |
| 2026-04-28 20:02 | 30.38115 | 31.33549 | 34975 ft | 479 kts | 179° |
| 2026-04-28 20:03 | 30.31541 | 31.34744 | 35008 ft | 478 kts | 179° |
| 2026-04-28 20:03 | 30.24970 | 31.35938 | 35022 ft | 478 kts | 179° |
| 2026-04-28 20:04 | 30.18405 | 31.37130 | 35049 ft | 478 kts | 179° |
| 2026-04-28 20:04 | 30.11837 | 31.38470 | 35022 ft | 485 kts | 171° |
| 2026-04-28 20:05 | 30.05584 | 31.41699 | 35041 ft | 504 kts | 152° |
| 2026-04-28 20:05 | 29.99899 | 31.46525 | 35044 ft | 508 kts | 148° |
| 2026-04-28 20:06 | 29.94278 | 31.51471 | 35038 ft | 509 kts | 148° |
| 2026-04-28 20:06 | 29.88620 | 31.56373 | 35030 ft | 508 kts | 149° |
| 2026-04-28 20:07 | 29.82979 | 31.61189 | 34984 ft | 508 kts | 150° |
| 2026-04-28 20:07 | 29.77303 | 31.66007 | 35019 ft | 507 kts | 150° |
| 2026-04-28 20:08 | 29.71626 | 31.70821 | 35024 ft | 507 kts | 150° |
| 2026-04-28 20:08 | 29.65950 | 31.75631 | 35020 ft | 506 kts | 150° |
| 2026-04-28 20:09 | 29.60281 | 31.80430 | 35030 ft | 506 kts | 150° |
| 2026-04-28 20:09 | 29.54617 | 31.85219 | 35027 ft | 506 kts | 150° |
| 2026-04-28 20:10 | 29.48951 | 31.90002 | 34999 ft | 505 kts | 150° |
| 2026-04-28 20:10 | 29.43294 | 31.94770 | 35024 ft | 505 kts | 150° |
| 2026-04-28 20:11 | 29.37630 | 31.99537 | 35022 ft | 505 kts | 150° |
| 2026-04-28 20:11 | 29.31956 | 32.04305 | 35027 ft | 506 kts | 150° |
| 2026-04-28 20:12 | 29.26272 | 32.09076 | 35031 ft | 507 kts | 150° |
| 2026-04-28 20:12 | 29.20580 | 32.13847 | 35020 ft | 507 kts | 150° |
| 2026-04-28 20:13 | 29.14882 | 32.18618 | 35010 ft | 508 kts | 150° |
| 2026-04-28 20:13 | 29.09179 | 32.23385 | 35024 ft | 507 kts | 151° |
| 2026-04-28 20:14 | 29.03481 | 32.28141 | 35019 ft | 507 kts | 151° |
| 2026-04-28 20:14 | 28.97782 | 32.32891 | 35023 ft | 507 kts | 151° |
| 2026-04-28 20:15 | 28.92083 | 32.37635 | 35013 ft | 506 kts | 151° |
| 2026-04-28 20:15 | 28.86427 | 32.42336 | 34978 ft | 506 kts | 151° |
| 2026-04-28 20:16 | 28.80749 | 32.47050 | 35015 ft | 504 kts | 151° |
| 2026-04-28 20:16 | 28.75078 | 32.51751 | 35017 ft | 504 kts | 151° |
| 2026-04-28 20:17 | 28.69411 | 32.56441 | 35016 ft | 503 kts | 151° |
| 2026-04-28 20:17 | 28.63714 | 32.61145 | 34405 ft | 510 kts | 151° |
| 2026-04-28 20:17 | 28.60847 | 32.63512 | 33770 ft | 509 kts | 151° |
| 2026-04-28 20:18 | 28.57984 | 32.65876 | 33170 ft | 507 kts | 151° |
| 2026-04-28 20:18 | 28.56061 | 32.67465 | 32828 ft | 503 kts | 150° |
| 2026-04-28 20:18 | 28.52337 | 32.70541 | 32222 ft | 497 kts | 150° |
| 2026-04-28 20:18 | 28.49542 | 32.72845 | 31760 ft | 493 kts | 150° |
| 2026-04-28 20:19 | 28.46788 | 32.75113 | 31317 ft | 489 kts | 150° |
| 2026-04-28 20:19 | 28.44038 | 32.77374 | 30879 ft | 485 kts | 150° |
| 2026-04-28 20:19 | 28.41316 | 32.79610 | 30439 ft | 481 kts | 149° |
| 2026-04-28 20:19 | 28.38616 | 32.81828 | 29988 ft | 478 kts | 149° |
| 2026-04-28 20:20 | 28.35935 | 32.84027 | 29453 ft | 474 kts | 149° |
| 2026-04-28 20:20 | 28.33275 | 32.86209 | 28973 ft | 469 kts | 149° |
| 2026-04-28 20:20 | 28.30646 | 32.88365 | 28522 ft | 464 kts | 149° |
| 2026-04-28 20:20 | 28.28043 | 32.90499 | 28071 ft | 459 kts | 149° |
| 2026-04-28 20:21 | 28.25473 | 32.92604 | 27627 ft | 454 kts | 149° |
| 2026-04-28 20:21 | 28.22924 | 32.94689 | 27144 ft | 450 kts | 149° |
| 2026-04-28 20:21 | 28.20401 | 32.96752 | 26746 ft | 444 kts | 149° |
| 2026-04-28 20:21 | 28.17904 | 32.98793 | 26308 ft | 440 kts | 149° |
| 2026-04-28 20:22 | 28.15432 | 33.00811 | 25882 ft | 437 kts | 149° |
| 2026-04-28 20:22 | 28.12975 | 33.02817 | 25458 ft | 433 kts | 149° |
| 2026-04-28 20:22 | 28.10542 | 33.04802 | 25040 ft | 430 kts | 148° |
| 2026-04-28 20:22 | 28.08123 | 33.06774 | 24612 ft | 427 kts | 148° |
| 2026-04-28 20:23 | 28.05722 | 33.08731 | 24192 ft | 424 kts | 148° |
| 2026-04-28 20:23 | 28.03339 | 33.10671 | 23781 ft | 421 kts | 148° |
| 2026-04-28 20:23 | 28.00969 | 33.12601 | 23398 ft | 417 kts | 148° |
| 2026-04-28 20:23 | 27.99424 | 33.13859 | 23235 ft | 411 kts | 148° |
| 2026-04-28 20:24 | 27.96353 | 33.16359 | 22784 ft | 403 kts | 148° |
| 2026-04-28 20:24 | 27.94087 | 33.18201 | 22396 ft | 399 kts | 148° |
| 2026-04-28 20:24 | 27.91841 | 33.20024 | 21961 ft | 396 kts | 148° |
| 2026-04-28 20:24 | 27.89606 | 33.21838 | 21557 ft | 394 kts | 148° |
| 2026-04-28 20:25 | 27.87390 | 33.23636 | 21159 ft | 391 kts | 148° |
| 2026-04-28 20:25 | 27.85185 | 33.25424 | 20748 ft | 389 kts | 148° |
| 2026-04-28 20:25 | 27.82989 | 33.27204 | 20343 ft | 387 kts | 148° |
| 2026-04-28 20:25 | 27.81544 | 33.28375 | 20083 ft | 386 kts | 148° |
| 2026-04-28 20:26 | 27.79367 | 33.30138 | 19674 ft | 385 kts | 147° |
| 2026-04-28 20:26 | 27.77196 | 33.31896 | 19269 ft | 383 kts | 147° |
| 2026-04-28 20:26 | 27.74301 | 33.34239 | 18707 ft | 382 kts | 147° |
| 2026-04-28 20:26 | 27.72870 | 33.35396 | 18445 ft | 382 kts | 147° |
| 2026-04-28 20:27 | 27.70715 | 33.37138 | 18003 ft | 381 kts | 147° |
| 2026-04-28 20:27 | 27.68567 | 33.38874 | 17566 ft | 379 kts | 147° |
| 2026-04-28 20:27 | 27.66428 | 33.40603 | 17145 ft | 377 kts | 147° |
| 2026-04-28 20:27 | 27.63621 | 33.42869 | 16612 ft | 373 kts | 147° |
| 2026-04-28 20:28 | 27.62198 | 33.44018 | 16349 ft | 372 kts | 147° |
| 2026-04-28 20:28 | 27.60097 | 33.45713 | 15960 ft | 370 kts | 147° |
| 2026-04-28 20:28 | 27.58013 | 33.47394 | 15560 ft | 368 kts | 147° |
| 2026-04-28 20:28 | 27.55940 | 33.49065 | 15170 ft | 366 kts | 147° |
| 2026-04-28 20:29 | 27.53874 | 33.50729 | 14782 ft | 364 kts | 147° |
| 2026-04-28 20:29 | 27.51817 | 33.52366 | 14396 ft | 361 kts | 150° |
| 2026-04-28 20:29 | 27.49615 | 33.53677 | 14027 ft | 356 kts | 159° |
| 2026-04-28 20:29 | 27.47341 | 33.54742 | 13634 ft | 353 kts | 161° |
| 2026-04-28 20:30 | 27.45063 | 33.55763 | 13199 ft | 352 kts | 161° |
| 2026-04-28 20:30 | 27.42797 | 33.56802 | 12816 ft | 350 kts | 160° |
| 2026-04-28 20:30 | 27.40559 | 33.57863 | 12415 ft | 349 kts | 159° |
| 2026-04-28 20:30 | 27.38334 | 33.58937 | 12035 ft | 346 kts | 159° |
| 2026-04-28 20:31 | 27.36161 | 33.59991 | 11671 ft | 344 kts | 159° |
| 2026-04-28 20:31 | 27.33936 | 33.60927 | 11288 ft | 340 kts | 166° |
| 2026-04-28 20:31 | 27.31652 | 33.61606 | 10927 ft | 337 kts | 168° |
| 2026-04-28 20:31 | 27.29380 | 33.62220 | 10571 ft | 335 kts | 168° |
| 2026-04-28 20:32 | 27.27153 | 33.62832 | 10417 ft | 326 kts | 168° |
| 2026-04-28 20:32 | 27.24982 | 33.63452 | 10267 ft | 317 kts | 168° |
| 2026-04-28 20:32 | 27.22871 | 33.64071 | 10123 ft | 309 kts | 167° |
| 2026-04-28 20:32 | 27.20818 | 33.64679 | 10008 ft | 301 kts | 167° |
| 2026-04-28 20:33 | 27.18805 | 33.65276 | 9725 ft | 299 kts | 167° |
| 2026-04-28 20:33 | 27.16800 | 33.65870 | 9415 ft | 298 kts | 167° |
| 2026-04-28 20:33 | 27.14797 | 33.66464 | 9088 ft | 297 kts | 167° |
| 2026-04-28 20:33 | 27.12786 | 33.67059 | 8726 ft | 298 kts | 167° |
| 2026-04-28 20:34 | 27.10829 | 33.67640 | 8530 ft | 286 kts | 167° |
| 2026-04-28 20:34 | 27.08911 | 33.68209 | 8068 ft | 285 kts | 167° |
| 2026-04-28 20:34 | 27.06988 | 33.68778 | 7586 ft | 286 kts | 166° |
| 2026-04-28 20:34 | 27.05069 | 33.69346 | 7144 ft | 285 kts | 166° |
| 2026-04-28 20:35 | 27.03155 | 33.69912 | 6735 ft | 283 kts | 166° |
| 2026-04-28 20:35 | 27.01265 | 33.70472 | 6379 ft | 279 kts | 166° |
| 2026-04-28 20:35 | 26.99399 | 33.71023 | 5968 ft | 277 kts | 165° |
| 2026-04-28 20:35 | 26.97536 | 33.71611 | 5462 ft | 279 kts | 158° |
| 2026-04-28 20:36 | 26.95990 | 33.72855 | 5071 ft | 272 kts | 125° |
| 2026-04-28 20:36 | 26.95199 | 33.74704 | 4780 ft | 258 kts | 96° |
| 2026-04-28 20:36 | 26.95217 | 33.76643 | 4504 ft | 242 kts | 71° |
| 2026-04-28 20:36 | 26.95829 | 33.78334 | 4291 ft | 229 kts | 52° |
| 2026-04-28 20:37 | 26.96836 | 33.79637 | 4199 ft | 216 kts | 38° |
| 2026-04-28 20:37 | 26.97936 | 33.80702 | 4155 ft | 202 kts | 36° |
| 2026-04-28 20:37 | 26.98976 | 33.81685 | 4080 ft | 189 kts | 36° |
| 2026-04-28 20:37 | 26.99950 | 33.82610 | 3946 ft | 179 kts | 36° |
| 2026-04-28 20:38 | 27.00891 | 33.83507 | 3606 ft | 177 kts | 33° |
| 2026-04-28 20:38 | 27.01867 | 33.84311 | 3310 ft | 167 kts | 16° |
| 2026-04-28 20:38 | 27.02964 | 33.84332 | 2892 ft | 160 kts | 346° |
| 2026-04-28 20:38 | 27.04072 | 33.84124 | 2525 ft | 161 kts | 347° |
| 2026-04-28 20:39 | 27.05164 | 33.83864 | 2262 ft | 159 kts | 343° |
| 2026-04-28 20:39 | 27.06217 | 33.83561 | 2047 ft | 154 kts | 342° |
| 2026-04-28 20:39 | 27.07260 | 33.83251 | 1846 ft | 156 kts | 342° |
| 2026-04-28 20:39 | 27.08295 | 33.82943 | 1672 ft | 151 kts | 341° |
| 2026-04-28 20:40 | 27.09323 | 33.82636 | 1453 ft | 155 kts | 343° |
| 2026-04-28 20:40 | 27.10328 | 33.82338 | 1278 ft | 149 kts | 341° |
| 2026-04-28 20:40 | 27.11349 | 33.82032 | 1080 ft | 152 kts | 343° |
| 2026-04-28 20:40 | 27.12378 | 33.81726 | 857 ft | 157 kts | 344° |
| 2026-04-28 20:41 | 27.13436 | 33.81412 | 652 ft | 157 kts | 344° |
| 2026-04-28 20:41 | 27.14482 | 33.81101 | 435 ft | 155 kts | 344° |
| 2026-04-28 20:41 | 27.15531 | 33.80788 | 212 ft | 156 kts | 345° |
| 2026-04-28 20:41 | 27.16575 | 33.80480 | 50 ft | 151 kts | 345° |
| 2026-04-28 20:42 | 27.17430 | 33.80224 | 52 ft | 97 kts | 345° |
| 2026-04-28 20:42 | 27.17884 | 33.80090 | 54 ft | 49 kts | 345° |
| 2026-04-28 20:42 | 27.18203 | 33.79995 | 50 ft | 45 kts | 345° |
| 2026-04-28 20:42 | 27.18382 | 33.79942 | 47 ft | 17 kts | 345° |
| 2026-04-28 20:43 | 27.18466 | 33.80009 | 49 ft | 17 kts | 71° |
| 2026-04-28 20:43 | 27.18419 | 33.80109 | 49 ft | 16 kts | 162° |
| 2026-04-28 20:43 | 27.18312 | 33.80136 | 50 ft | 15 kts | 166° |
| 2026-04-28 20:43 | 27.18211 | 33.80168 | 50 ft | 15 kts | 157° |
| 2026-04-28 20:44 | 27.18183 | 33.80261 | 50 ft | 14 kts | 72° |
| 2026-04-28 20:44 | 27.18206 | 33.80366 | 57 ft | 14 kts | 89° |
| 2026-04-28 20:44 | 27.18147 | 33.80435 | 57 ft | 13 kts | 163° |
| 2026-04-28 20:44 | 27.18076 | 33.80481 | 53 ft | 13 kts | 89° |
| 2026-04-28 20:45 | 27.18099 | 33.80552 | 53 ft | 0 kts | 75° |